Time;durP1;ratioP1;P1;durP2;ratioP2;P2;SDS_P1;SDS_P2;PMS_P1;PMS_P2;Temp;Humidity;BMP_temperature;BMP_pressure;BME280_temperature;BME280_humidity;BME280_pressure;Samples;Min_cycle;Max_cycle;Signal;HPM_P1;HPM_P2
2022/06/16 00:02:03;;;;;;;7.97;2.65;;;;;;;14.68;73.33;99198.00;4954732;29;20039;-86
2022/06/16 00:04:30;;;;;;;4.75;2.70;;;;;;;14.54;73.33;99181.03;4954519;29;20043;-87
2022/06/16 00:06:56;;;;;;;5.13;2.73;;;;;;;14.61;73.43;99188.72;4954162;29;20039;-89
2022/06/16 00:09:23;;;;;;;;;;;;;;;14.64;73.35;99205.34;4937859;29;20293;-86
2022/06/16 00:11:49;;;;;;;5.00;2.63;;;;;;;14.46;73.45;99179.13;4937369;29;19922;-86
2022/06/16 00:14:16;;;;;;;;;;;;;;;14.59;73.52;99202.00;4921828;29;20071;-85
2022/06/16 00:16:42;;;;;;;6.72;2.63;;;;;;;14.47;73.64;99189.81;4936493;29;19923;-85
2022/06/16 00:19:10;;;;;;;9.07;2.80;;;;;;;14.23;73.88;99162.25;4933152;29;20082;-86
2022/06/16 00:21:36;;;;;;;4.38;2.90;;;;;;;14.42;74.09;99191.97;4936818;29;20055;-86
2022/06/16 00:24:02;;;;;;;3.25;2.60;;;;;;;14.51;74.12;99204.50;4954391;29;20042;-86
2022/06/16 00:26:29;;;;;;;11.32;2.80;;;;;;;14.42;73.83;99186.47;4937786;29;20051;-87
2022/06/16 00:28:56;;;;;;;5.88;2.80;;;;;;;14.62;73.66;99202.09;4957966;29;20047;-88
2022/06/16 00:31:23;;;;;;;5.03;2.30;;;;;;;14.64;73.49;99208.09;4936524;29;20073;-86
2022/06/16 00:33:50;;;;;;;4.70;2.80;;;;;;;14.70;73.21;99206.72;4920896;29;20129;-85
2022/06/16 00:36:17;;;;;;;;;;;;;;;14.73;72.96;99211.50;4936832;29;20243;-85
2022/06/16 00:38:44;;;;;;;8.63;2.70;;;;;;;14.72;72.74;99198.09;4936001;29;20398;-86
2022/06/16 00:41:11;;;;;;;7.63;3.20;;;;;;;14.50;72.81;99171.81;4936818;29;20058;-86
2022/06/16 00:43:37;;;;;;;6.35;2.42;;;;;;;14.60;72.74;99182.38;4952691;29;20070;-85
2022/06/16 00:46:06;;;;;;;5.30;2.80;;;;;;;14.74;72.53;99199.38;4953509;29;20129;-86
2022/06/16 00:48:47;;;;;;;8.35;2.70;;;;;;;14.79;72.25;99204.63;4935726;29;20031;-86
2022/06/16 00:51:48;;;;;;;7.70;2.70;;;;;;;14.89;72.29;99206.13;4952260;29;20145;-86
2022/06/16 00:54:33;;;;;;;7.00;2.60;;;;;;;14.93;71.90;99226.34;4936169;29;20404;-88
2022/06/16 00:57:22;;;;;;;6.28;2.90;;;;;;;14.95;71.49;99218.53;4929842;29;20540;-86
2022/06/16 00:59:50;;;;;;;4.95;2.10;;;;;;;14.98;71.11;99220.59;4914655;29;20043;-88
2022/06/16 01:02:18;;;;;;;3.95;2.50;;;;;;;14.67;71.17;99166.13;4946362;29;20048;-88
2022/06/16 01:04:53;;;;;;;3.25;2.25;;;;;;;14.99;70.79;99210.38;4945904;29;20047;-87
2022/06/16 01:07:30;;;;;;;8.18;3.40;;;;;;;14.89;71.08;99195.13;4945893;29;20418;-87
2022/06/16 01:09:59;;;;;;;3.63;2.53;;;;;;;14.88;70.71;99198.22;4930127;29;20119;-87
2022/06/16 01:16:10;;;;;;;5.22;2.65;;;;;;;14.95;70.90;99232.28;4915147;29;20099;-87
2022/06/16 01:19:05;;;;;;;5.35;2.50;;;;;;;14.89;70.92;99230.91;4912200;29;20424;-88
2022/06/16 01:21:48;;;;;;;7.22;2.65;;;;;;;14.73;71.06;99205.22;4896746;29;20047;-87
2022/06/16 01:24:52;;;;;;;11.18;2.92;;;;;;;14.73;71.13;99208.75;4923356;29;20510;-87
2022/06/16 01:27:58;;;;;;;6.07;2.60;;;;;;;14.80;71.51;99236.53;4921027;29;20054;-88
2022/06/16 01:31:00;;;;;;;4.43;2.30;;;;;;;14.72;71.68;99229.16;4929637;29;20052;-87
2022/06/16 01:33:35;;;;;;;8.82;2.80;;;;;;;14.44;71.90;99190.50;4945861;29;20128;-88
2022/06/16 01:36:43;;;;;;;4.15;2.80;;;;;;;14.70;72.23;99247.16;4912631;29;20040;-88
2022/06/16 01:39:23;;;;;;;8.65;3.20;;;;;;;14.64;72.28;99246.59;4913957;29;20103;-87
2022/06/16 01:41:59;;;;;;;9.63;2.70;;;;;;;14.60;72.47;99236.59;4913998;29;20044;-87
2022/06/16 01:44:40;;;;;;;9.40;2.50;;;;;;;14.54;72.34;99227.78;4914249;29;20044;-87
2022/06/16 01:47:13;;;;;;;8.18;2.65;;;;;;;14.36;72.41;99216.13;4929373;29;20059;-89
2022/06/16 01:49:56;;;;;;;3.55;2.42;;;;;;;14.44;72.45;99239.19;4913929;29;20067;-88
2022/06/16 01:52:41;;;;;;;5.78;2.45;;;;;;;14.53;72.45;99253.66;4929609;29;20044;-87
2022/06/16 01:55:18;;;;;;;3.33;2.55;;;;;;;14.32;72.61;99229.75;4895346;29;20044;-87
2022/06/16 01:57:52;;;;;;;10.75;2.65;;;;;;;14.36;72.55;99237.34;4918145;29;20059;-87
2022/06/16 02:00:25;;;;;;;7.55;2.72;;;;;;;14.48;72.58;99267.63;4948786;29;20048;-86
2022/06/16 02:03:23;;;;;;;4.93;2.50;;;;;;;14.47;72.76;99266.00;4933104;29;20043;-88
2022/06/16 02:05:58;;;;;;;5.63;2.50;;;;;;;14.33;72.78;99245.09;4920435;29;20087;-89
2022/06/16 02:08:37;;;;;;;8.18;2.72;;;;;;;14.36;72.55;99248.34;4950940;29;20043;-87
2022/06/16 02:11:33;;;;;;;8.40;3.05;;;;;;;14.53;72.25;99259.16;4935967;29;20050;-87
2022/06/16 02:14:22;;;;;;;3.72;2.83;;;;;;;14.63;72.03;99263.44;4952373;29;20054;-87
2022/06/16 02:16:52;;;;;;;5.70;2.50;;;;;;;14.61;71.79;99241.78;4935838;29;20143;-87
2022/06/16 02:19:42;;;;;;;4.03;2.35;;;;;;;14.84;71.08;99263.38;4922089;29;20062;-86
2022/06/16 02:22:10;;;;;;;10.40;2.70;;;;;;;14.73;70.76;99238.22;4952083;29;20043;-87
2022/06/16 02:24:36;;;;;;;2.88;2.45;;;;;;;14.85;70.71;99251.22;4937460;29;20091;-86
2022/06/16 02:27:05;;;;;;;6.95;2.40;;;;;;;14.97;70.12;99273.25;4937179;29;20049;-86
2022/06/16 02:29:37;;;;;;;;;;;;;;;15.08;69.91;99290.09;4936131;29;20039;-86
2022/06/16 02:32:23;;;;;;;10.55;2.63;;;;;;;15.17;69.63;99286.09;4937017;29;19922;-86
2022/06/16 02:35:07;;;;;;;6.65;2.63;;;;;;;15.21;69.68;99295.25;4937350;29;20131;-88
2022/06/16 02:37:59;;;;;;;5.60;2.50;;;;;;;15.22;69.15;99296.84;4920102;29;20054;-86
2022/06/16 02:41:10;;;;;;;8.27;2.55;;;;;;;15.21;69.05;99302.72;4935348;29;20047;-85
2022/06/16 02:43:46;;;;;;;7.47;2.30;;;;;;;15.18;69.12;99306.97;4935393;29;20047;-89
2022/06/16 02:46:24;;;;;;;9.40;2.60;;;;;;;15.02;69.27;99273.78;4935471;29;20095;-87
2022/06/16 02:49:15;;;;;;;8.18;3.05;;;;;;;15.25;69.05;99306.38;4935748;29;20513;-87
2022/06/16 02:52:01;;;;;;;5.72;2.38;;;;;;;15.16;68.82;99267.94;4935525;29;20052;-87
2022/06/16 02:54:36;;;;;;;4.10;2.42;;;;;;;15.20;68.10;99266.13;4935262;29;20064;-87
2022/06/16 02:57:16;;;;;;;10.07;2.75;;;;;;;15.54;68.40;99297.06;4931963;29;20056;-87
2022/06/16 02:59:50;;;;;;;4.63;2.50;;;;;;;15.57;67.77;99277.09;4917641;29;20498;-87
2022/06/16 03:02:22;;;;;;;3.75;2.40;;;;;;;15.86;67.40;99300.84;4932075;29;20522;-87
2022/06/16 03:04:52;;;;;;;7.30;2.65;;;;;;;15.95;66.53;99295.19;4917359;29;20044;-87
2022/06/16 03:07:21;;;;;;;3.85;2.35;;;;;;;16.13;65.75;99296.50;4916132;29;20043;-86
2022/06/16 03:09:57;;;;;;;;;;;;;;;16.29;64.81;99301.25;4916526;29;20040;-87
2022/06/16 03:12:23;;;;;;;5.45;2.67;;;;;;;16.31;64.69;99280.44;4931278;29;20021;-86
2022/06/16 03:14:49;;;;;;;9.45;2.53;;;;;;;16.42;64.42;99289.00;4932090;29;20071;-86
2022/06/16 03:17:16;;;;;;;;;;;;;;;16.50;63.26;99295.53;4910008;29;20048;-88
2022/06/16 03:19:42;;;;;;;14.02;2.45;;;;;;;16.25;63.47;99264.50;4915145;29;19955;-86
2022/06/16 03:22:09;;;;;;;4.80;2.65;;;;;;;16.11;63.58;99251.13;4917353;29;20055;-86
2022/06/16 03:24:36;;;;;;;4.63;2.28;;;;;;;16.18;63.45;99265.91;4914578;29;20047;-86
2022/06/16 03:27:02;;;;;;;7.63;2.10;;;;;;;16.36;62.52;99298.72;4916315;29;20509;-86
2022/06/16 03:29:40;;;;;;;4.47;2.08;;;;;;;16.29;62.89;99304.84;4932166;29;20177;-88
2022/06/16 03:32:09;;;;;;;6.28;2.22;;;;;;;16.23;63.77;99273.13;4931856;29;20048;-88
2022/06/16 03:34:37;;;;;;;8.70;2.17;;;;;;;16.17;62.91;99269.81;4900298;29;20108;-87
2022/06/16 03:37:05;;;;;;;6.80;2.50;;;;;;;16.45;63.30;99304.84;4917987;29;20047;-89
2022/06/16 03:39:50;;;;;;;3.72;2.15;;;;;;;16.29;62.96;99291.03;4918350;29;20051;-85
2022/06/16 03:42:18;;;;;;;6.85;2.35;;;;;;;16.25;63.41;99272.78;4931668;29;20039;-87
2022/06/16 03:44:45;;;;;;;6.45;2.47;;;;;;;16.35;64.26;99286.84;4947299;29;20046;-86
2022/06/16 03:47:14;;;;;;;10.02;2.97;;;;;;;16.29;63.97;99290.22;4931208;29;20131;-86
2022/06/16 03:49:42;;;;;;;11.23;2.70;;;;;;;16.27;63.94;99307.13;4947261;29;20095;-86
2022/06/16 03:52:08;;;;;;;12.70;3.05;;;;;;;16.20;64.80;99302.22;4899979;29;20047;-86
2022/06/16 03:54:37;;;;;;;9.07;2.60;;;;;;;16.15;64.91;99301.66;4930746;29;20036;-86
2022/06/16 03:57:07;;;;;;;12.48;4.03;;;;;;;16.10;65.21;99277.09;4924068;29;20048;-89
2022/06/16 03:59:35;;;;;;;6.03;3.33;;;;;;;16.28;65.42;99300.44;4944588;29;20044;-86
2022/06/16 04:02:09;;;;;;;11.23;3.65;;;;;;;16.53;65.72;99327.94;4919297;29;20517;-87
2022/06/16 04:04:38;;;;;;;8.68;3.17;;;;;;;16.51;64.42;99314.50;4933437;29;20421;-85
2022/06/16 04:07:09;;;;;;;12.30;2.92;;;;;;;16.62;64.59;99315.59;4929571;29;20405;-87
2022/06/16 04:09:42;;;;;;;6.38;2.78;;;;;;;16.64;63.98;99310.50;4940128;29;20210;-88
2022/06/16 04:12:10;;;;;;;5.40;2.22;;;;;;;16.57;62.34;99295.72;4924234;29;20035;-86
2022/06/16 04:14:37;;;;;;;5.90;2.38;;;;;;;16.67;63.48;99309.00;4940747;29;20055;-85
2022/06/16 04:17:06;;;;;;;11.48;3.08;;;;;;;16.62;63.29;99306.50;4930441;29;20043;-86
2022/06/16 04:22:32;;;;;;;7.45;2.38;;;;;;;16.77;63.10;99302.19;4967751;29;20043;-88
2022/06/16 04:25:15;;;;;;;4.60;2.30;;;;;;;16.90;63.30;99304.53;4940110;29;20128;-88
2022/06/16 04:27:43;;;;;;;7.03;2.90;;;;;;;16.83;62.64;99289.75;4951346;29;20052;-86
2022/06/16 04:30:12;;;;;;;11.10;2.97;;;;;;;17.14;62.51;99327.59;4933402;29;20048;-86
2022/06/16 04:32:38;;;;;;;11.38;2.58;;;;;;;17.06;61.89;99295.44;4919162;29;20099;-88
2022/06/16 04:35:08;;;;;;;14.90;2.80;;;;;;;16.98;62.85;99268.78;4933227;29;20071;-87
2022/06/16 04:37:47;;;;;;;5.50;2.50;;;;;;;17.28;61.58;99300.31;4940056;29;20044;-91
2022/06/16 04:40:13;;;;;;;4.53;2.38;;;;;;;17.50;61.35;99326.50;4951425;29;20055;-87
2022/06/16 04:42:40;;;;;;;5.17;2.37;;;;;;;17.57;62.69;99318.38;4922784;29;20452;-83
2022/06/16 04:45:10;;;;;;;5.05;2.38;;;;;;;17.69;61.52;99324.97;4932471;29;20279;-81
2022/06/16 04:47:38;;;;;;;6.50;2.47;;;;;;;17.64;61.80;99300.34;4931815;29;20040;-83
2022/06/16 04:50:07;;;;;;;8.75;2.25;;;;;;;17.72;59.42;99319.50;4946836;28;20054;-82
2022/06/16 04:52:36;;;;;;;7.78;2.45;;;;;;;17.60;59.25;99275.41;4925231;29;20087;-80
2022/06/16 04:55:03;;;;;;;16.93;3.63;;;;;;;17.98;59.70;99320.88;4921335;29;20040;-83
2022/06/16 04:57:50;;;;;;;3.90;2.25;;;;;;;17.90;59.18;99310.84;4930330;29;20054;-82
2022/06/16 05:00:36;;;;;;;5.45;2.72;;;;;;;17.77;58.54;99288.03;4933747;29;20090;-83
2022/06/16 05:03:08;;;;;;;5.05;2.40;;;;;;;17.99;59.46;99315.00;4932726;29;20532;-82
2022/06/16 05:05:41;;;;;;;6.25;2.80;;;;;;;17.84;59.32;99288.97;4935018;29;20055;-82
2022/06/16 05:08:23;;;;;;;7.43;2.80;;;;;;;18.13;58.33;99322.00;4934105;29;20044;-82
2022/06/16 05:11:08;;;;;;;8.23;2.70;;;;;;;18.20;58.55;99322.13;4951543;29;20043;-84
2022/06/16 05:13:42;;;;;;;11.90;2.47;;;;;;;18.19;57.49;99309.47;4951655;29;20527;-86
2022/06/16 05:16:24;;;;;;;17.92;2.63;;;;;;;18.28;57.03;99307.28;4950672;29;20039;-81
2022/06/16 05:19:09;;;;;;;8.88;2.22;;;;;;;18.36;57.71;99316.53;4951696;29;20095;-83
2022/06/16 05:21:46;;;;;;;8.50;3.03;;;;;;;18.55;57.03;99330.34;4951539;29;20130;-82
2022/06/16 05:24:27;;;;;;;9.65;2.28;;;;;;;18.62;57.43;99338.00;4924951;29;20039;-83
2022/06/16 05:27:16;;;;;;;15.57;2.92;;;;;;;18.61;57.68;99317.00;4933607;29;20039;-82
2022/06/16 05:30:02;;;;;;;9.02;2.60;;;;;;;18.80;55.97;99333.63;4932266;29;20122;-83
2022/06/16 05:32:42;;;;;;;7.70;2.20;;;;;;;18.67;55.81;99285.06;4945044;28;20075;-84
2022/06/16 05:35:33;;;;;;;16.73;2.60;;;;;;;19.01;56.11;99324.91;4959656;28;20039;-82
2022/06/16 05:38:29;;;;;;;7.13;2.30;;;;;;;19.05;55.75;99331.28;4930202;29;20126;-82
2022/06/16 05:41:31;;;;;;;9.35;3.13;;;;;;;18.96;56.35;99309.38;4894002;29;20051;-84
2022/06/16 05:44:17;;;;;;;5.60;2.28;;;;;;;19.21;57.10;99322.88;4933151;29;20484;-83
2022/06/16 05:47:04;;;;;;;;;;;;;;;19.37;56.17;99329.06;4927398;29;20076;-88
2022/06/16 05:49:38;;;;;;;11.98;2.28;;;;;;;19.15;55.63;99302.19;4944826;29;19922;-85
2022/06/16 05:52:12;;;;;;;7.88;2.33;;;;;;;19.30;54.76;99333.69;4922575;29;20039;-84
2022/06/16 05:54:42;;;;;;;7.80;2.70;;;;;;;19.28;54.68;99328.53;4932221;29;20472;-84
2022/06/16 05:57:09;;;;;;;18.92;3.47;;;;;;;19.15;54.12;99291.09;4933908;29;20130;-85
2022/06/16 05:59:37;;;;;;;10.45;2.28;;;;;;;19.44;55.28;99326.41;4923730;29;20052;-83
2022/06/16 06:02:06;;;;;;;6.15;2.30;;;;;;;19.46;56.75;99323.25;4911260;29;20047;-83
2022/06/16 06:04:33;;;;;;;7.35;2.60;;;;;;;19.59;56.36;99332.16;4959562;28;20039;-84
2022/06/16 06:07:02;;;;;;;11.27;2.92;;;;;;;19.41;55.63;99290.31;4950410;29;20560;-84
2022/06/16 06:18:20;;;;;;;7.18;2.90;;;;;;;19.87;53.37;99320.72;4952123;29;20050;-87
2022/06/16 06:20:46;;;;;;;8.05;2.60;;;;;;;19.88;54.16;99311.22;4932492;29;20070;-83
2022/06/16 06:23:13;;;;;;;10.20;2.92;;;;;;;19.92;54.37;99315.63;4930143;29;20094;-89
2022/06/16 06:25:40;;;;;;;4.68;2.20;;;;;;;20.03;53.33;99329.63;4918701;29;20039;-87
2022/06/16 06:28:11;;;;;;;6.70;2.30;;;;;;;19.88;52.95;99309.25;4934996;29;20077;-88
2022/06/16 06:30:37;;;;;;;4.20;2.50;;;;;;;20.05;52.51;99332.06;4951912;29;20058;-87
2022/06/16 06:33:05;;;;;;;5.72;2.40;;;;;;;20.02;52.60;99302.28;4920721;29;20040;-87
2022/06/16 06:35:31;;;;;;;13.35;2.80;;;;;;;20.15;52.36;99306.41;4931905;29;20086;-87
2022/06/16 06:38:00;;;;;;;5.18;2.63;;;;;;;20.21;50.62;99293.81;4936438;29;20039;-88
2022/06/16 06:40:33;;;;;;;7.60;3.28;;;;;;;20.54;50.46;99322.78;4936472;29;20097;-88
2022/06/16 06:42:59;;;;;;;5.97;2.50;;;;;;;20.36;52.73;99287.25;4935879;29;20075;-87
2022/06/16 06:45:27;;;;;;;7.82;2.60;;;;;;;20.56;50.38;99303.72;4936430;29;20122;-88
2022/06/16 06:47:54;;;;;;;6.18;2.80;;;;;;;20.83;48.91;99316.34;4938454;29;20501;-87
2022/06/16 06:50:22;;;;;;;5.43;2.13;;;;;;;21.09;50.03;99328.47;4945353;29;20115;-88
2022/06/16 06:52:50;;;;;;;6.82;2.15;;;;;;;21.10;46.64;99316.19;4942560;29;20047;-88
2022/06/16 06:55:18;;;;;;;10.52;2.30;;;;;;;21.10;48.65;99316.97;4937009;29;20043;-87
2022/06/16 06:57:46;;;;;;;4.93;2.13;;;;;;;21.17;49.16;99315.44;4919471;29;20062;-84
2022/06/16 07:00:13;;;;;;;;;;;;;;;21.26;48.17;99315.94;4937288;29;20043;-85
2022/06/16 07:02:41;;;;;;;10.52;2.25;;;;;;;21.08;46.06;99299.09;4935370;29;19930;-86
2022/06/16 07:05:08;;;;;;;8.68;2.05;;;;;;;21.36;46.49;99306.91;4936606;29;20048;-87
2022/06/16 07:07:35;;;;;;;;;;;;;;;21.49;46.19;99319.31;4935494;29;20146;-87
2022/06/16 07:10:02;;;;;;;6.90;2.30;;;;;;;21.29;46.02;99296.50;4951290;29;20032;-86
2022/06/16 07:12:28;;;;;;;11.00;2.30;;;;;;;21.24;45.33;99273.81;4951422;29;20043;-86
2022/06/16 07:14:55;;;;;;;7.18;2.33;;;;;;;21.40;44.39;99263.22;4935020;29;20035;-87
2022/06/16 07:17:23;;;;;;;8.35;2.20;;;;;;;21.78;44.51;99314.72;4933365;29;20417;-87
2022/06/16 07:19:51;;;;;;;15.65;3.25;;;;;;;21.51;44.54;99285.53;4934645;29;20047;-87
2022/06/16 07:22:17;;;;;;;12.88;2.70;;;;;;;21.72;44.34;99312.69;4935360;29;20150;-87
2022/06/16 07:24:48;;;;;;;7.05;2.17;;;;;;;21.38;45.03;99256.44;4934728;29;20501;-87
2022/06/16 07:27:18;;;;;;;14.95;3.55;;;;;;;21.58;43.80;99296.69;4936044;29;20528;-87
2022/06/16 07:29:49;;;;;;;8.65;2.20;;;;;;;21.49;44.49;99310.97;4934528;29;20044;-86
2022/06/16 07:32:17;;;;;;;14.48;2.70;;;;;;;21.44;42.87;99291.06;4935809;29;20044;-88
2022/06/16 07:37:13;;;;;;;7.43;2.20;;;;;;;20.98;42.93;99294.22;4936425;29;20040;-87
2022/06/16 07:39:40;;;;;;;9.40;2.72;;;;;;;21.09;43.90;99315.41;4918710;29;20039;-87
2022/06/16 07:42:08;;;;;;;15.32;2.60;;;;;;;20.87;44.66;99266.34;4936260;29;20082;-87
2022/06/16 07:44:37;;;;;;;9.07;2.40;;;;;;;20.98;44.56;99278.34;4950103;29;20043;-87
2022/06/16 07:47:04;;;;;;;4.50;2.22;;;;;;;21.02;43.73;99259.72;4950699;29;20070;-87
2022/06/16 07:49:31;;;;;;;6.43;2.20;;;;;;;21.13;42.42;99270.16;4940537;29;20044;-88
2022/06/16 07:52:00;;;;;;;16.33;2.25;;;;;;;21.03;43.26;99258.56;4931266;29;20048;-87
2022/06/16 07:54:26;;;;;;;11.43;2.50;;;;;;;21.29;44.62;99293.72;4934395;29;20040;-87
2022/06/16 07:56:52;;;;;;;7.75;2.22;;;;;;;21.11;45.34;99293.56;4935182;29;20476;-87
2022/06/16 07:59:18;;;;;;;11.85;2.40;;;;;;;20.86;44.54;99248.06;4918682;29;20402;-86
2022/06/16 08:01:44;;;;;;;9.50;2.13;;;;;;;21.02;47.07;99275.59;4935153;29;20039;-87
2022/06/16 08:04:12;;;;;;;5.53;2.00;;;;;;;20.97;46.17;99257.31;4935673;29;20652;-87
2022/06/16 08:06:40;;;;;;;6.80;1.98;;;;;;;21.27;45.65;99287.72;4949859;29;20502;-86
2022/06/16 08:09:08;;;;;;;4.40;2.00;;;;;;;21.34;44.42;99285.03;4918503;29;20078;-87
2022/06/16 08:14:19;;;;;;;20.92;2.28;;;;;;;21.26;42.97;99266.69;4935628;29;20069;-86
2022/06/16 08:16:45;;;;;;;10.13;1.80;;;;;;;21.21;41.98;99280.13;4934971;29;20054;-88
2022/06/16 08:19:12;;;;;;;5.45;1.95;;;;;;;21.05;42.59;99255.38;4935135;29;20055;-87
2022/06/16 08:21:38;;;;;;;14.27;2.33;;;;;;;21.30;43.40;99266.69;4935173;29;20134;-87
2022/06/16 08:24:06;;;;;;;8.30;1.90;;;;;;;21.56;41.70;99268.50;4933355;29;20055;-87
2022/06/16 08:26:34;;;;;;;23.98;2.92;;;;;;;21.62;41.60;99266.91;4933871;29;20058;-87
2022/06/16 08:29:02;;;;;;;23.50;2.60;;;;;;;21.88;41.99;99281.78;4949349;29;20057;-87
2022/06/16 08:31:29;;;;;;;8.65;2.00;;;;;;;22.04;41.47;99285.03;4935276;29;20054;-88
2022/06/16 08:33:56;;;;;;;8.73;2.17;;;;;;;22.15;39.42;99274.78;4939156;29;20040;-88
2022/06/16 08:36:23;;;;;;;12.32;2.30;;;;;;;22.20;39.87;99256.91;4933959;29;20099;-86
2022/06/16 08:38:51;;;;;;;7.68;1.90;;;;;;;22.28;37.87;99278.00;4934684;29;20099;-86
2022/06/16 08:41:26;;;;;;;4.90;2.17;;;;;;;22.22;39.56;99258.09;4935171;29;20055;-87
2022/06/16 08:44:11;;;;;;;5.43;1.67;;;;;;;22.41;38.55;99268.09;4949404;29;20051;-87
2022/06/16 08:47:04;;;;;;;4.43;1.55;;;;;;;22.36;38.97;99234.28;4933697;29;20098;-88
2022/06/16 08:50:00;;;;;;;7.80;2.10;;;;;;;22.79;38.30;99268.56;4929450;29;20110;-87
2022/06/16 08:52:39;;;;;;;3.93;1.80;;;;;;;22.86;37.35;99248.25;4933807;29;20070;-87
2022/06/16 08:55:37;;;;;;;10.57;2.38;;;;;;;23.04;38.38;99259.44;4934744;29;20409;-87
2022/06/16 08:59:09;;;;;;;7.38;2.67;;;;;;;23.00;38.13;99237.13;4950057;29;20052;-87
2022/06/16 09:01:57;;;;;;;10.60;2.10;;;;;;;22.63;38.15;99220.78;4875999;29;20056;-87
2022/06/16 09:04:40;;;;;;;21.73;2.85;;;;;;;22.64;38.65;99253.00;4881991;29;20576;-86
2022/06/16 09:07:14;;;;;;;3.28;1.83;;;;;;;22.48;37.28;99273.69;4894804;29;20057;-87
2022/06/16 09:10:17;;;;;;;10.82;2.08;;;;;;;22.40;38.17;99272.06;4894314;29;20044;-86
2022/06/16 09:13:04;;;;;;;7.78;2.10;;;;;;;22.17;38.40;99277.97;4894698;29;20063;-86
2022/06/16 09:15:56;;;;;;;12.30;2.15;;;;;;;21.94;38.93;99257.94;4894275;29;20044;-86
2022/06/16 09:18:55;;;;;;;18.08;2.47;;;;;;;22.02;39.80;99281.84;4894419;29;20048;-86
2022/06/16 09:21:42;;;;;;;7.40;2.50;;;;;;;22.10;40.31;99289.03;4893774;29;20140;-88
2022/06/16 09:24:45;;;;;;;6.90;2.13;;;;;;;22.06;40.94;99296.59;4894583;29;20044;-86
2022/06/16 09:27:25;;;;;;;14.38;3.15;;;;;;;21.71;40.60;99267.38;4894332;29;20056;-86
2022/06/16 09:30:06;;;;;;;11.05;2.20;;;;;;;21.66;41.84;99284.44;4894561;29;20048;-86
2022/06/16 09:32:58;;;;;;;16.88;2.78;;;;;;;21.48;42.44;99264.84;4917746;29;20111;-84
2022/06/16 09:35:34;;;;;;;13.13;2.88;;;;;;;21.46;42.45;99305.38;4931448;29;20035;-86
2022/06/16 09:38:08;;;;;;;23.55;3.30;;;;;;;21.54;42.33;99284.75;4933373;29;20052;-84
2022/06/16 09:40:43;;;;;;;18.45;3.17;;;;;;;21.69;43.43;99264.19;4932090;29;20405;-84
2022/06/16 09:43:33;;;;;;;15.10;2.63;;;;;;;21.74;40.66;99276.94;4933154;29;20130;-84
2022/06/16 09:46:18;;;;;;;12.30;2.05;;;;;;;21.92;41.27;99277.84;4932809;29;20146;-84
2022/06/16 09:48:59;;;;;;;11.23;2.33;;;;;;;21.93;40.23;99270.28;4932864;29;20082;-84
2022/06/16 09:51:41;;;;;;;21.48;2.60;;;;;;;21.99;39.97;99252.81;4930825;29;20043;-84
2022/06/16 09:54:20;;;;;;;12.10;2.72;;;;;;;22.28;43.26;99262.09;4930005;29;20047;-86
2022/06/16 09:56:49;;;;;;;8.82;2.25;;;;;;;22.18;39.36;99232.22;4931916;29;20051;-84
2022/06/16 09:59:24;;;;;;;9.88;2.22;;;;;;;22.41;38.17;99253.38;4931782;29;20050;-85
2022/06/16 10:01:57;;;;;;;15.35;2.20;;;;;;;22.32;39.15;99237.03;4934953;29;20055;-85
2022/06/16 10:04:24;;;;;;;7.68;2.70;;;;;;;22.58;42.03;99263.75;4933517;29;20060;-84
2022/06/16 10:07:08;;;;;;;;;;;;;;;22.42;37.04;99260.56;4932367;29;20416;-84
2022/06/16 10:09:54;;;;;;;6.47;2.33;;;;;;;22.57;39.28;99258.56;4943234;29;19923;-83
2022/06/16 10:12:39;;;;;;;11.00;2.47;;;;;;;22.31;37.76;99248.56;4919536;29;20058;-86
2022/06/16 10:15:21;;;;;;;8.48;2.15;;;;;;;22.42;37.30;99254.97;4930401;29;20916;-84
2022/06/16 10:17:51;;;;;;;13.15;3.00;;;;;;;22.54;41.49;99245.44;4929626;29;20038;-86
2022/06/16 10:20:21;;;;;;;5.15;2.35;;;;;;;22.72;38.86;99249.06;4926834;29;20052;-83
2022/06/16 10:23:06;;;;;;;11.93;3.63;;;;;;;22.85;38.89;99243.91;4924871;29;20090;-82
2022/06/16 10:25:43;;;;;;;10.43;2.75;;;;;;;22.94;37.06;99250.66;4917525;29;20421;-83
2022/06/16 10:28:29;;;;;;;11.93;2.55;;;;;;;23.19;37.45;99256.25;4925742;29;20054;-84
2022/06/16 10:30:59;;;;;;;5.63;2.13;;;;;;;23.32;37.37;99244.69;4915543;29;20080;-83
2022/06/16 10:33:27;;;;;;;10.95;2.30;;;;;;;23.33;37.52;99224.75;4937147;29;20043;-83
2022/06/16 10:36:12;;;;;;;6.38;2.40;;;;;;;23.51;35.49;99251.81;4952069;29;20040;-83
2022/06/16 10:38:42;;;;;;;13.88;2.50;;;;;;;23.58;36.57;99258.19;4921109;29;20066;-84
2022/06/16 10:41:32;;;;;;;7.85;2.50;;;;;;;23.54;34.23;99245.44;4936492;29;20043;-83
2022/06/16 10:44:01;;;;;;;9.10;2.78;;;;;;;23.40;35.13;99224.72;4937100;29;20047;-83
2022/06/16 10:46:32;;;;;;;6.60;2.15;;;;;;;23.57;34.88;99245.41;4934676;29;20059;-83
2022/06/16 10:49:04;;;;;;;9.95;2.33;;;;;;;23.64;34.80;99234.25;4951977;29;20138;-83
2022/06/16 10:51:36;;;;;;;9.18;2.25;;;;;;;23.59;35.14;99237.44;4936401;29;20051;-84
2022/06/16 10:54:19;;;;;;;19.77;2.33;;;;;;;23.32;35.64;99239.13;4935619;29;20043;-83
2022/06/16 10:56:47;;;;;;;7.38;2.67;;;;;;;23.16;35.68;99257.06;4936543;29;20089;-83
2022/06/16 10:59:28;;;;;;;8.32;2.83;;;;;;;23.16;33.84;99254.25;4937059;29;20102;-83
2022/06/16 11:02:04;;;;;;;8.52;2.63;;;;;;;23.03;34.40;99255.84;4936681;29;20055;-84
2022/06/16 11:04:39;;;;;;;5.78;2.70;;;;;;;22.97;35.96;99257.44;4945820;29;20063;-83
2022/06/16 11:07:12;;;;;;;7.43;2.75;;;;;;;22.80;37.11;99244.28;4930588;29;20044;-85
2022/06/16 11:09:38;;;;;;;12.07;2.70;;;;;;;23.03;35.68;99233.56;4923824;29;20099;-82
2022/06/16 11:12:14;;;;;;;14.45;2.30;;;;;;;23.35;34.55;99252.25;4936804;29;20051;-84
2022/06/16 11:14:52;;;;;;;7.68;2.58;;;;;;;23.63;36.99;99254.19;4935832;29;20047;-93
2022/06/16 11:17:20;;;;;;;8.55;2.13;;;;;;;23.79;34.67;99250.97;4936858;29;20071;-86
2022/06/16 11:19:51;;;;;;;14.73;2.33;;;;;;;24.11;35.91;99248.88;4936823;29;20138;-85
2022/06/16 11:22:26;;;;;;;10.98;2.50;;;;;;;24.30;31.66;99250.34;4935328;29;20067;-85
2022/06/16 11:25:01;;;;;;;8.70;2.40;;;;;;;24.68;33.91;99263.75;4936146;29;20047;-84
2022/06/16 11:27:30;;;;;;;14.40;3.00;;;;;;;24.52;32.65;99239.88;4940724;29;20501;-84
2022/06/16 11:29:57;;;;;;;9.18;2.78;;;;;;;24.39;33.31;99244.31;4958192;29;20051;-84
2022/06/16 11:32:28;;;;;;;11.63;3.25;;;;;;;24.36;33.18;99229.16;4957694;29;20108;-83
2022/06/16 11:34:54;;;;;;;12.70;2.65;;;;;;;24.52;33.27;99225.91;4955640;29;20044;-84
2022/06/16 11:37:39;;;;;;;8.20;2.50;;;;;;;24.66;33.68;99252.16;4936382;29;20044;-82
2022/06/16 11:40:24;;;;;;;16.38;2.65;;;;;;;24.97;33.63;99253.94;4946660;29;20044;-85
2022/06/16 11:43:02;;;;;;;9.90;2.05;;;;;;;24.90;33.71;99228.84;4933291;29;20071;-81
2022/06/16 11:45:54;;;;;;;12.20;3.13;;;;;;;25.06;33.68;99251.44;4937843;29;20484;-92
2022/06/16 11:48:41;;;;;;;4.82;2.38;;;;;;;24.86;32.82;99253.22;4937129;29;20099;-91
2022/06/16 11:51:39;;;;;;;8.73;2.58;;;;;;;24.97;32.02;99239.97;4937018;29;20083;-89
2022/06/16 11:54:30;;;;;;;24.65;4.70;;;;;;;25.04;31.86;99253.09;4913038;29;20062;-89
2022/06/16 11:57:10;;;;;;;11.35;2.47;;;;;;;24.79;32.10;99186.16;4933384;29;20118;-89
2022/06/16 12:00:01;;;;;;;12.52;3.50;;;;;;;25.36;32.24;99227.63;4912390;29;20067;-91
2022/06/16 12:03:13;;;;;;;14.50;2.40;;;;;;;25.48;31.86;99241.09;4928687;29;20047;-92
2022/06/16 12:06:17;;;;;;;8.65;2.40;;;;;;;25.51;30.22;99243.06;4917898;29;20050;-93
2022/06/16 12:09:00;;;;;;;11.13;2.67;;;;;;;25.42;29.49;99214.78;4911866;29;20044;-91
2022/06/16 12:11:47;;;;;;;18.73;3.22;;;;;;;25.58;29.24;99245.00;4911018;29;20051;-91
2022/06/16 12:14:24;;;;;;;9.52;2.33;;;;;;;25.71;29.14;99248.06;4921817;29;20035;-90
2022/06/16 12:17:03;;;;;;;15.15;2.50;;;;;;;25.77;30.63;99235.19;4922490;29;20054;-89
2022/06/16 12:19:49;;;;;;;7.15;2.05;;;;;;;25.77;29.44;99235.19;4909827;29;20051;-92
2022/06/16 12:22:49;;;;;;;5.15;1.95;;;;;;;25.40;28.93;99222.81;4909447;29;20103;-89
2022/06/16 12:25:40;;;;;;;14.15;2.30;;;;;;;25.29;30.84;99241.69;4927908;29;20067;-86
2022/06/16 12:28:19;;;;;;;11.10;2.55;;;;;;;25.30;29.53;99201.31;4924727;29;21080;-86
2022/06/16 12:30:58;;;;;;;8.27;2.67;;;;;;;25.72;29.44;99216.81;4947115;29;20052;-84
2022/06/16 12:33:53;;;;;;;17.17;2.63;;;;;;;26.12;28.69;99233.97;4922374;29;20042;-84
2022/06/16 12:36:29;;;;;;;10.15;2.47;;;;;;;26.05;26.55;99230.47;4931145;29;20122;-85